createdAt,value
2023-04-19T00:00:40.195Z,100.00
2023-04-19T00:03:08.566Z,100.00
2023-04-19T00:05:38.512Z,100.00
2023-04-19T00:08:06.952Z,100.00
2023-04-19T00:10:37.519Z,100.00
2023-04-19T00:13:05.447Z,100.00
2023-04-19T00:15:35.134Z,100.00
2023-04-19T00:18:03.807Z,100.00
2023-04-19T00:20:31.736Z,100.00
2023-04-19T00:22:59.671Z,100.00
2023-04-19T00:25:28.513Z,100.00
2023-04-19T00:27:57.721Z,100.00
2023-04-19T00:30:25.509Z,100.00
2023-04-19T00:32:54.208Z,100.00
2023-04-19T00:35:22.572Z,100.00
2023-04-19T00:37:50.551Z,100.00
2023-04-19T00:40:18.443Z,100.00
2023-04-19T00:42:46.453Z,100.00
2023-04-19T00:45:15.589Z,100.00
2023-04-19T00:47:43.687Z,100.00
2023-04-19T00:50:13.038Z,100.00
2023-04-19T00:52:41.187Z,100.00
2023-04-19T00:55:09.365Z,100.00
2023-04-19T00:57:37.557Z,100.00
2023-04-19T01:00:08.882Z,100.00
2023-04-19T01:02:38.353Z,100.00
2023-04-19T01:05:06.971Z,100.00
2023-04-19T01:07:34.960Z,100.00
2023-04-19T01:10:02.947Z,100.00
2023-04-19T01:12:30.711Z,100.00
2023-04-19T01:14:58.538Z,100.00
2023-04-19T01:17:26.442Z,100.00
2023-04-19T01:20:01.961Z,100.00
2023-04-19T01:22:33.152Z,100.00
2023-04-19T01:25:01.077Z,100.00
2023-04-19T01:27:29.058Z,100.00
2023-04-19T01:29:58.770Z,100.00
2023-04-19T01:32:28.094Z,100.00
2023-04-19T01:34:57.296Z,100.00
2023-04-19T01:37:25.308Z,100.00
2023-04-19T01:39:54.726Z,100.00
2023-04-19T01:42:23.032Z,100.00
2023-04-19T01:44:51.201Z,100.00
2023-04-19T01:47:20.870Z,100.00
2023-04-19T01:49:48.703Z,100.00
2023-04-19T01:52:17.272Z,100.00
2023-04-19T01:54:45.067Z,100.00
2023-04-19T01:57:16.644Z,100.00
2023-04-19T01:59:44.938Z,100.00
2023-04-19T02:02:13.349Z,100.00
2023-04-19T02:04:41.186Z,100.00
2023-04-19T02:07:09.237Z,100.00
2023-04-19T02:09:37.596Z,100.00
2023-04-19T02:12:05.902Z,100.00
2023-04-19T02:14:35.224Z,100.00
2023-04-19T02:17:03.114Z,100.00
2023-04-19T02:19:31.248Z,100.00
2023-04-19T02:21:59.222Z,100.00
2023-04-19T02:24:27.044Z,100.00
2023-04-19T02:26:54.993Z,100.00
2023-04-19T02:29:22.899Z,100.00
2023-04-19T02:31:52.386Z,100.00
2023-04-19T02:34:20.411Z,100.00
2023-04-19T02:36:48.481Z,100.00
2023-04-19T02:39:17.049Z,100.00
2023-04-19T02:41:44.995Z,100.00
2023-04-19T02:44:13.197Z,100.00
2023-04-19T02:46:41.262Z,100.00
2023-04-19T02:49:10.501Z,100.00
2023-04-19T02:51:38.530Z,100.00
2023-04-19T02:54:06.750Z,100.00
2023-04-19T02:56:34.882Z,100.00
2023-04-19T02:59:03.844Z,100.00
2023-04-19T03:01:32.102Z,100.00
2023-04-19T03:04:02.287Z,100.00
2023-04-19T03:06:32.084Z,100.00
2023-04-19T03:08:59.926Z,100.00
2023-04-19T03:11:28.687Z,100.00
2023-04-19T03:13:56.480Z,100.00
2023-04-19T03:16:24.376Z,100.00
2023-04-19T03:18:54.162Z,100.00
2023-04-19T03:21:29.182Z,100.00
2023-04-19T03:23:58.724Z,100.00
2023-04-19T03:26:27.759Z,100.00
2023-04-19T03:28:57.981Z,100.00
2023-04-19T03:31:35.378Z,100.00
2023-04-19T03:34:04.733Z,100.00
2023-04-19T03:36:39.891Z,100.00
2023-04-19T03:39:13.699Z,100.00
2023-04-19T03:41:43.887Z,100.00
2023-04-19T03:44:19.674Z,100.00
2023-04-19T03:46:48.862Z,100.00
2023-04-19T03:49:20.739Z,100.00
2023-04-19T03:51:54.770Z,100.00
2023-04-19T03:54:24.819Z,100.00
2023-04-19T03:56:52.606Z,100.00
2023-04-19T03:59:20.640Z,100.00
2023-04-19T04:01:48.833Z,100.00
2023-04-19T04:04:16.940Z,100.00
2023-04-19T04:06:45.893Z,100.00
2023-04-19T04:09:16.772Z,100.00
2023-04-19T04:11:46.617Z,100.00
2023-04-19T04:14:14.887Z,100.00
2023-04-19T04:16:42.970Z,100.00
2023-04-19T04:19:11.237Z,100.00
2023-04-19T04:21:41.925Z,100.00
2023-04-19T04:24:10.953Z,100.00
2023-04-19T04:27:00.946Z,100.00
2023-04-19T04:29:32.525Z,100.00
2023-04-19T04:32:02.698Z,100.00
2023-04-19T04:34:37.781Z,100.00
2023-04-19T04:37:11.798Z,100.00
2023-04-19T04:39:40.222Z,100.00
2023-04-19T04:42:12.274Z,100.00
2023-04-19T04:44:40.097Z,100.00
2023-04-19T04:47:10.534Z,100.00
2023-04-19T04:49:43.904Z,100.00
2023-04-19T04:52:11.807Z,100.00
2023-04-19T04:54:50.510Z,100.00
2023-04-19T04:57:27.145Z,100.00
2023-04-19T04:59:56.424Z,100.00
2023-04-19T05:02:27.122Z,100.00
2023-04-19T05:04:55.161Z,100.00
2023-04-19T05:07:22.964Z,100.00
2023-04-19T05:09:52.073Z,100.00
2023-04-19T05:12:25.153Z,100.00
2023-04-19T05:14:54.458Z,100.00
2023-04-19T05:17:22.313Z,100.00
2023-04-19T05:19:50.207Z,100.00
2023-04-19T05:22:18.405Z,100.00
2023-04-19T05:24:47.304Z,100.00
2023-04-19T05:27:16.384Z,100.00
2023-04-19T05:29:44.721Z,100.00
2023-04-19T05:32:14.201Z,100.00
2023-04-19T05:34:46.843Z,100.00
2023-04-19T05:37:16.785Z,100.00
2023-04-19T05:39:44.921Z,100.00
2023-04-19T05:42:12.824Z,100.00
2023-04-19T05:44:40.951Z,100.00
2023-04-19T05:47:12.314Z,100.00
2023-04-19T05:50:04.409Z,100.00
2023-04-19T05:52:35.952Z,100.00
2023-04-19T05:55:06.009Z,100.00
2023-04-19T05:57:35.482Z,100.00
2023-04-19T06:00:05.963Z,100.00
2023-04-19T06:02:57.934Z,100.00
2023-04-19T06:05:27.364Z,100.00
2023-04-19T06:08:02.722Z,100.00
2023-04-19T06:10:37.537Z,100.00
2023-04-19T06:13:08.974Z,100.00
2023-04-19T06:15:36.866Z,100.00
2023-04-19T06:18:07.240Z,100.00
2023-04-19T06:20:36.476Z,100.00
2023-04-19T06:23:04.252Z,100.00
2023-04-19T06:25:32.707Z,100.00
2023-04-19T06:28:00.761Z,100.00
2023-04-19T06:30:28.895Z,100.00
2023-04-19T06:32:57.033Z,100.00
2023-04-19T06:35:25.502Z,100.00
2023-04-19T06:37:54.844Z,100.00
2023-04-19T06:40:22.928Z,100.00
2023-04-19T06:42:51.045Z,100.00
2023-04-19T06:45:18.963Z,100.00
2023-04-19T06:47:46.859Z,100.00
2023-04-19T06:50:14.690Z,100.00
2023-04-19T06:52:43.184Z,100.00
2023-04-19T06:55:12.674Z,100.00
2023-04-19T06:57:40.962Z,100.00
2023-04-19T07:00:10.102Z,100.00
2023-04-19T07:02:38.009Z,100.00
2023-04-19T07:05:06.874Z,100.00
2023-04-19T07:07:34.606Z,100.00
2023-04-19T07:10:02.316Z,100.00
2023-04-19T07:12:31.438Z,100.00
2023-04-19T07:14:59.120Z,100.00
2023-04-19T07:17:27.161Z,100.00
2023-04-19T07:19:54.983Z,100.00
2023-04-19T07:22:23.262Z,100.00
2023-04-19T07:24:52.172Z,100.00
2023-04-19T07:27:19.878Z,100.00
2023-04-19T07:29:48.965Z,100.00
2023-04-19T07:32:16.724Z,100.00
2023-04-19T07:34:45.870Z,100.00
2023-04-19T07:37:13.624Z,100.00
2023-04-19T07:39:41.435Z,100.00
2023-04-19T07:42:09.234Z,100.00
2023-04-19T07:44:37.310Z,100.00
2023-04-19T07:47:06.661Z,100.00
2023-04-19T07:49:35.273Z,100.00
2023-04-19T07:52:03.079Z,100.00
2023-04-19T07:54:32.261Z,100.00
2023-04-19T07:57:00.020Z,100.00
2023-04-19T07:59:27.751Z,100.00
2023-04-19T08:01:55.658Z,100.00
2023-04-19T08:04:25.356Z,100.00
2023-04-19T08:06:53.926Z,100.00
2023-04-19T08:09:21.624Z,100.00
2023-04-19T08:11:49.348Z,100.00
2023-04-19T08:14:32.119Z,100.00
2023-04-19T08:19:37.250Z,100.00
2023-04-19T08:22:05.971Z,100.00
2023-04-19T08:24:33.697Z,100.00
2023-04-19T08:27:01.734Z,100.00
2023-04-19T08:29:29.492Z,100.00
2023-04-19T08:31:57.257Z,100.00
2023-04-19T08:34:25.034Z,100.00
2023-04-19T08:37:03.573Z,100.00
2023-04-19T08:39:33.975Z,100.00
2023-04-19T08:42:10.370Z,100.00
2023-04-19T08:44:54.297Z,100.00
2023-04-19T08:47:32.209Z,100.00
2023-04-19T08:50:11.782Z,100.00
2023-04-19T08:52:56.109Z,100.00
2023-04-19T08:55:26.714Z,100.00
2023-04-19T08:57:54.408Z,100.00
2023-04-19T09:00:23.020Z,100.00
2023-04-19T09:02:51.653Z,100.00
2023-04-19T09:05:20.170Z,100.00
2023-04-19T09:07:48.112Z,100.00
2023-04-19T09:10:17.951Z,100.00
2023-04-19T09:13:00.621Z,100.00
2023-04-19T09:15:36.912Z,100.00
2023-04-19T09:18:05.775Z,100.00
2023-04-19T09:20:37.280Z,100.00
2023-04-19T09:23:06.084Z,100.00
2023-04-19T09:25:58.840Z,100.00
2023-04-19T09:28:24.597Z,100.00
2023-04-19T09:31:00.645Z,100.00
2023-04-19T09:33:35.196Z,100.00
2023-04-19T09:36:03.122Z,100.00
2023-04-19T09:38:30.904Z,100.00
2023-04-19T09:41:18.409Z,100.00
2023-04-19T09:44:05.516Z,100.00
2023-04-19T09:46:34.954Z,99.32
2023-04-19T09:49:25.163Z,100.00
2023-04-19T09:51:58.849Z,100.00
2023-04-19T09:54:27.477Z,100.00
2023-04-19T09:56:57.946Z,100.00
2023-04-19T09:59:26.736Z,100.00
2023-04-19T10:01:55.669Z,98.89
2023-04-19T10:04:32.741Z,98.96
2023-04-19T10:07:25.179Z,99.48
2023-04-19T10:09:56.469Z,99.21
2023-04-19T10:14:58.658Z,100.00
2023-04-19T10:17:26.704Z,100.00
2023-04-19T10:20:00.964Z,96.59
2023-04-19T10:22:28.941Z,98.71
2023-04-19T10:25:12.477Z,94.09
2023-04-19T10:27:48.948Z,98.44
2023-04-19T10:30:22.890Z,99.77
2023-04-19T10:32:56.385Z,99.07
2023-04-19T10:35:29.414Z,100.00
2023-04-19T10:38:07.255Z,100.00
2023-04-19T10:41:00.645Z,93.53
2023-04-19T10:43:33.228Z,97.23
2023-04-19T10:46:04.387Z,96.15
2023-04-19T10:48:39.501Z,95.69
2023-04-19T10:51:14.485Z,96.71
2023-04-19T10:53:49.889Z,97.44
2023-04-19T10:56:17.966Z,96.06
2023-04-19T10:59:24.179Z,92.88
2023-04-19T11:01:56.265Z,91.07
2023-04-19T11:04:43.593Z,91.14
2023-04-19T11:07:11.424Z,92.44
2023-04-19T11:09:39.692Z,93.40
2023-04-19T11:12:08.786Z,91.53
2023-04-19T11:14:38.666Z,93.84
2023-04-19T11:17:19.065Z,90.00
2023-04-19T11:19:47.132Z,91.14
2023-04-19T11:22:14.835Z,90.48
2023-04-19T11:24:47.143Z,91.28
2023-04-19T11:27:14.951Z,92.30
2023-04-19T11:29:44.086Z,91.63
2023-04-19T11:32:11.820Z,91.26
2023-04-19T11:34:39.915Z,90.91
2023-04-19T11:37:07.662Z,92.34
2023-04-19T11:39:35.478Z,89.08
2023-04-19T11:42:03.487Z,90.18
2023-04-19T11:44:31.284Z,93.05
2023-04-19T11:47:01.679Z,92.54
2023-04-19T11:49:30.317Z,91.48
2023-04-19T11:51:59.528Z,89.94
2023-04-19T11:54:27.479Z,91.89
2023-04-19T11:56:59.907Z,95.98
2023-04-19T11:59:27.650Z,90.71
2023-04-19T12:01:55.354Z,91.71
2023-04-19T12:04:24.752Z,91.31
2023-04-19T12:06:59.652Z,90.16
2023-04-19T12:09:27.388Z,92.03
2023-04-19T12:11:55.179Z,90.84
2023-04-19T12:14:23.425Z,93.99
2023-04-19T12:17:07.811Z,93.52
2023-04-19T12:19:43.831Z,94.14
2023-04-19T12:22:15.550Z,96.23
2023-04-19T12:24:43.529Z,95.40
2023-04-19T12:27:11.370Z,99.32
2023-04-19T12:29:39.464Z,97.73
2023-04-19T12:32:07.457Z,100.00
2023-04-19T12:34:35.270Z,100.00
2023-04-19T12:37:04.463Z,100.00
2023-04-19T12:39:32.208Z,100.00
2023-04-19T12:41:59.908Z,100.00
2023-04-19T12:44:27.648Z,100.00
2023-04-19T12:46:57.454Z,100.00
2023-04-19T12:49:25.539Z,99.03
2023-04-19T12:51:57.360Z,100.00
2023-04-19T12:54:26.755Z,100.00
2023-04-19T12:56:55.054Z,100.00
2023-04-19T12:59:23.752Z,100.00
2023-04-19T13:01:51.527Z,100.00
2023-04-19T13:04:19.749Z,100.00
2023-04-19T13:06:48.019Z,100.00
2023-04-19T13:09:16.109Z,100.00
2023-04-19T13:11:48.119Z,100.00
2023-04-19T13:14:16.134Z,100.00
2023-04-19T13:16:44.051Z,100.00
2023-04-19T13:19:11.926Z,100.00
2023-04-19T13:21:39.750Z,100.00
2023-04-19T13:24:07.950Z,100.00
2023-04-19T13:26:41.779Z,100.00
2023-04-19T13:29:10.945Z,100.00
2023-04-19T13:31:38.860Z,100.00
2023-04-19T13:34:06.609Z,100.00
2023-04-19T13:36:34.388Z,100.00
2023-04-19T13:39:02.238Z,100.00
2023-04-19T13:41:30.506Z,100.00
2023-04-19T13:43:59.112Z,98.38
2023-04-19T13:46:28.306Z,100.00
2023-04-19T13:48:56.144Z,99.74
2023-04-19T13:51:23.893Z,99.63
2023-04-19T13:53:51.958Z,95.25
2023-04-19T13:56:19.968Z,97.64
2023-04-19T13:58:47.849Z,97.63
2023-04-19T14:01:15.674Z,95.67
2023-04-19T14:03:44.974Z,96.07
2023-04-19T14:09:02.829Z,100.00
2023-04-19T14:11:30.726Z,100.00
2023-04-19T14:13:58.462Z,100.00
2023-04-19T14:16:26.251Z,100.00
2023-04-19T14:18:55.389Z,100.00
2023-04-19T14:21:23.102Z,100.00
2023-04-19T14:23:50.835Z,100.00
2023-04-19T14:26:18.565Z,100.00
2023-04-19T14:28:46.334Z,100.00
2023-04-19T14:31:14.236Z,100.00
2023-04-19T14:33:42.030Z,100.00
2023-04-19T14:36:11.189Z,100.00
2023-04-19T14:38:39.031Z,100.00
2023-04-19T14:41:06.816Z,100.00
2023-04-19T14:43:34.790Z,100.00
2023-04-19T14:46:02.726Z,100.00
2023-04-19T14:48:30.691Z,100.00
2023-04-19T14:50:58.402Z,100.00
2023-04-19T14:53:27.581Z,100.00
2023-04-19T14:55:55.418Z,100.00
2023-04-19T14:58:23.204Z,100.00
2023-04-19T15:00:50.983Z,100.00
2023-04-19T15:03:18.813Z,100.00
2023-04-19T15:05:46.744Z,100.00
2023-04-19T15:08:28.929Z,100.00
2023-04-19T15:10:59.029Z,100.00
2023-04-19T15:13:27.143Z,100.00
2023-04-19T15:15:56.256Z,100.00
2023-04-19T15:18:24.272Z,100.00
2023-04-19T15:20:52.029Z,100.00
2023-04-19T15:23:19.820Z,100.00
2023-04-19T15:25:49.742Z,100.00
2023-04-19T15:28:18.841Z,100.00
2023-04-19T15:30:46.524Z,100.00
2023-04-19T15:33:14.303Z,100.00
2023-04-19T15:35:42.034Z,100.00
2023-04-19T15:38:09.776Z,100.00
2023-04-19T15:40:38.540Z,100.00
2023-04-19T15:43:06.469Z,100.00
2023-04-19T15:45:36.015Z,100.00
2023-04-19T15:48:04.470Z,100.00
2023-04-19T15:50:32.568Z,100.00
2023-04-19T15:53:00.641Z,100.00
2023-04-19T15:55:28.342Z,100.00
2023-04-19T15:57:56.117Z,100.00
2023-04-19T16:00:24.146Z,100.00
2023-04-19T16:02:53.348Z,100.00
2023-04-19T16:05:21.161Z,100.00
2023-04-19T16:07:51.122Z,100.00
2023-04-19T16:10:19.942Z,100.00
2023-04-19T16:12:47.736Z,100.00
2023-04-19T16:15:15.590Z,100.00
2023-04-19T16:17:43.402Z,100.00
2023-04-19T16:20:13.439Z,100.00
2023-04-19T16:22:41.215Z,100.00
2023-04-19T16:25:11.054Z,100.00
2023-04-19T16:27:41.615Z,100.00
2023-04-19T16:30:10.348Z,100.00
2023-04-19T16:32:38.182Z,100.00
2023-04-19T16:35:06.452Z,100.00
2023-04-19T16:37:35.695Z,100.00
2023-04-19T16:40:07.015Z,100.00
2023-04-19T16:42:34.905Z,100.00
2023-04-19T16:45:02.733Z,100.00
2023-04-19T16:47:31.228Z,100.00
2023-04-19T16:49:59.091Z,100.00
2023-04-19T16:52:31.636Z,100.00
2023-04-19T16:55:03.354Z,100.00
2023-04-19T16:57:31.691Z,100.00
2023-04-19T17:00:03.227Z,100.00
2023-04-19T17:02:31.018Z,100.00
2023-04-19T17:04:59.673Z,100.00
2023-04-19T17:07:27.634Z,100.00
2023-04-19T17:09:55.948Z,100.00
2023-04-19T17:12:25.245Z,100.00
2023-04-19T17:14:53.111Z,100.00
2023-04-19T17:17:21.199Z,100.00
2023-04-19T17:19:49.089Z,100.00
2023-04-19T17:22:16.859Z,100.00
2023-04-19T17:24:44.630Z,100.00
2023-04-19T17:27:12.356Z,100.00
2023-04-19T17:29:41.500Z,100.00
2023-04-19T17:32:09.489Z,100.00
2023-04-19T17:34:37.331Z,100.00
2023-04-19T17:37:05.111Z,100.00
2023-04-19T17:39:32.824Z,100.00
2023-04-19T17:42:01.718Z,100.00
2023-04-19T17:44:32.589Z,100.00
2023-04-19T17:47:02.114Z,100.00
2023-04-19T17:49:29.932Z,100.00
2023-04-19T17:51:57.714Z,100.00
2023-04-19T17:54:26.100Z,100.00
2023-04-19T17:57:02.687Z,100.00
2023-04-19T17:59:30.482Z,100.00
2023-04-19T18:01:58.910Z,100.00
2023-04-19T18:04:28.250Z,100.00
2023-04-19T18:06:58.662Z,100.00
2023-04-19T18:09:28.197Z,100.00
2023-04-19T18:11:58.846Z,100.00
2023-04-19T18:14:28.751Z,100.00
2023-04-19T18:16:58.789Z,100.00
2023-04-19T18:19:31.160Z,100.00
2023-04-19T18:22:02.400Z,100.00
2023-04-19T18:24:30.116Z,100.00
2023-04-19T18:27:00.491Z,100.00
2023-04-19T18:29:33.077Z,100.00
2023-04-19T18:32:02.873Z,100.00
2023-04-19T18:34:35.179Z,100.00
2023-04-19T18:37:05.126Z,100.00
2023-04-19T18:39:32.898Z,100.00
2023-04-19T18:42:00.739Z,100.00
2023-04-19T18:44:52.147Z,100.00
2023-04-19T18:47:21.805Z,100.00
2023-04-19T18:52:27.305Z,100.00
2023-04-19T18:55:00.725Z,100.00
2023-04-19T18:57:34.732Z,100.00
2023-04-19T19:00:05.331Z,100.00
2023-04-19T19:02:34.227Z,100.00
2023-04-19T19:05:07.224Z,100.00
2023-04-19T19:07:37.127Z,100.00
2023-04-19T19:10:18.143Z,100.00
2023-04-19T19:12:46.686Z,100.00
2023-04-19T19:15:14.799Z,100.00
2023-04-19T19:17:43.257Z,100.00
2023-04-19T19:20:15.460Z,100.00
2023-04-19T19:22:43.219Z,100.00
2023-04-19T19:25:16.379Z,100.00
2023-04-19T19:27:58.393Z,100.00
2023-04-19T19:30:34.682Z,100.00
2023-04-19T19:33:04.323Z,100.00
2023-04-19T19:35:33.686Z,100.00
2023-04-19T19:38:05.960Z,100.00
2023-04-19T19:40:33.978Z,100.00
2023-04-19T19:43:01.994Z,100.00
2023-04-19T19:45:29.943Z,100.00
2023-04-19T19:47:59.199Z,100.00
2023-04-19T19:53:04.892Z,100.00
2023-04-19T19:55:32.795Z,100.00
2023-04-19T19:58:32.735Z,100.00
2023-04-19T20:00:55.422Z,100.00
2023-04-19T20:03:36.011Z,100.00
2023-04-19T20:06:35.656Z,100.00
2023-04-19T20:08:57.560Z,100.00
2023-04-19T20:11:25.632Z,100.00
2023-04-19T20:13:53.367Z,100.00
2023-04-19T20:16:23.638Z,100.00
2023-04-19T20:18:54.513Z,100.00
2023-04-19T20:21:28.205Z,100.00
2023-04-19T20:23:57.315Z,100.00
2023-04-19T20:26:32.390Z,100.00
2023-04-19T20:29:00.186Z,100.00
2023-04-19T20:31:28.071Z,100.00
2023-04-19T20:33:58.474Z,100.00
2023-04-19T20:36:28.042Z,100.00
2023-04-19T20:38:58.801Z,100.00
2023-04-19T20:41:27.073Z,100.00
2023-04-19T20:43:56.970Z,100.00
2023-04-19T20:46:24.808Z,100.00
2023-04-19T20:48:53.460Z,100.00
2023-04-19T20:51:23.361Z,100.00
2023-04-19T20:53:53.653Z,100.00
2023-04-19T20:56:25.363Z,100.00
2023-04-19T20:58:55.306Z,100.00
2023-04-19T21:01:24.392Z,100.00
2023-04-19T21:03:54.502Z,100.00
2023-04-19T21:06:27.865Z,100.00
2023-04-19T21:08:57.668Z,100.00
2023-04-19T21:11:26.795Z,100.00
2023-04-19T21:13:54.659Z,100.00
2023-04-19T21:16:22.584Z,100.00
2023-04-19T21:18:53.820Z,100.00
2023-04-19T21:21:24.235Z,100.00
2023-04-19T21:23:52.015Z,100.00
2023-04-19T21:26:19.985Z,100.00
2023-04-19T21:28:51.966Z,100.00
2023-04-19T21:31:19.711Z,100.00
2023-04-19T21:33:47.490Z,100.00
2023-04-19T21:36:15.198Z,100.00
2023-04-19T21:38:42.980Z,100.00
2023-04-19T21:41:10.925Z,100.00
2023-04-19T21:43:38.633Z,100.00
2023-04-19T21:46:07.741Z,100.00
2023-04-19T21:48:48.628Z,100.00
2023-04-19T21:51:17.176Z,100.00
2023-04-19T21:53:44.893Z,100.00
2023-04-19T21:56:12.689Z,100.00
2023-04-19T21:58:40.635Z,100.00
2023-04-19T22:01:10.728Z,100.00
2023-04-19T22:03:39.268Z,100.00
2023-04-19T22:06:08.528Z,100.00
2023-04-19T22:08:36.364Z,100.00
2023-04-19T22:11:04.183Z,100.00
2023-04-19T22:13:33.517Z,100.00
2023-04-19T22:16:02.426Z,100.00
2023-04-19T22:18:34.238Z,100.00
2023-04-19T22:21:02.001Z,100.00
2023-04-19T22:23:32.270Z,100.00
2023-04-19T22:26:00.396Z,100.00
2023-04-19T22:28:28.623Z,100.00
2023-04-19T22:30:56.349Z,100.00
2023-04-19T22:33:24.189Z,100.00
2023-04-19T22:35:53.329Z,100.00
2023-04-19T22:38:21.251Z,100.00
2023-04-19T22:40:48.989Z,100.00
2023-04-19T22:43:17.108Z,100.00
2023-04-19T22:45:47.802Z,100.00
2023-04-19T22:48:15.974Z,100.00
2023-04-19T22:50:43.750Z,100.00
2023-04-19T22:53:13.071Z,100.00
2023-04-19T22:55:40.981Z,100.00
2023-04-19T22:58:08.837Z,100.00
2023-04-19T23:00:36.658Z,100.00
2023-04-19T23:03:04.607Z,100.00
2023-04-19T23:05:33.602Z,100.00
2023-04-19T23:08:02.709Z,100.00
2023-04-19T23:10:31.952Z,100.00
2023-04-19T23:12:59.770Z,100.00
2023-04-19T23:15:29.453Z,100.00
2023-04-19T23:17:59.485Z,100.00
2023-04-19T23:20:27.296Z,100.00
2023-04-19T23:22:55.277Z,100.00
2023-04-19T23:25:23.125Z,100.00
2023-04-19T23:27:52.260Z,100.00
2023-04-19T23:30:20.173Z,100.00
2023-04-19T23:32:47.975Z,100.00
2023-04-19T23:35:15.727Z,100.00
2023-04-19T23:37:43.478Z,100.00
2023-04-19T23:40:11.777Z,100.00
2023-04-19T23:42:39.575Z,100.00
2023-04-19T23:45:11.815Z,100.00
2023-04-19T23:47:39.620Z,100.00
2023-04-19T23:50:08.541Z,100.00
2023-04-19T23:52:38.300Z,100.00
2023-04-19T23:55:06.876Z,100.00
2023-04-19T23:57:34.999Z,100.00
